Yuton, Illinois
Current Conditions -  °F | °C
As of 2:56 PM on Sunday 21 Dec 2014 (Local Time) from KBMI Reporting Station
Overcast Overcast  
Wind Chill: 28°   Ceiling: 1800
Heat Index: 36°   Visibility: 8mi
Dew Point: 31°   Wind: 13mph
Humidity: 82%   Direction: 170°S
Pressure: 30.07"   Gusts: NA
Location:  40.4766°N, 88.992°W
Report Text: KBMI 212056Z 17011KT 8SM OVC018 02/M01 A3007 RMK AO2 56026 T00221005 SLP198
Loading
Personal Weather Stations






























Interactive Weather Map New forecast layout! Learn more

10-Day Weather Forecast

Advertisements
Track Severe Weather on mobile